Terminal Aerodrome Forecast
Issued by NWS

Home | Current Version | Previous Version | Text Only | Print | Product List | Glossary On
Versions: 1 2 3 4 5 6 7 8 9 10 11 12 13 14 15 16 17 18 19 20 21 22 23 24 25 26 27 28 29 30 31 32 33 34 35 36 37 38 39 40 41 42 43 44 45 46 47 48 49 50
000
FTAK31 PAFA 281849 AAA
TAFAOT
TAF AMD
PAOT 281849Z 2819/0118 28023G30KT 1/4SM FZFG FEW007 BKN016 OVC060
     FM282200 29020KT 1SM BLSN SCT015 BKN035
     FM010600 25012KT P6SM FEW015 SCT050
     FM010900 12007KT P6SM SCT250=

USA.gov is the U.S. government's official web portal to all federal, state and local government web resources and services.